sensor_id;sensor_type;location;lat;lon;timestamp;temperature;humidity
15257;DHT22;7731;50.720;6.912;2022-09-09T00:00:48;16.90;99.90
15257;DHT22;7731;50.720;6.912;2022-09-09T00:03:26;16.90;99.90
15257;DHT22;7731;50.720;6.912;2022-09-09T00:06:09;16.90;99.90
15257;DHT22;7731;50.720;6.912;2022-09-09T00:09:00;16.90;99.90
15257;DHT22;7731;50.720;6.912;2022-09-09T00:11:40;16.90;99.90
15257;DHT22;7731;50.720;6.912;2022-09-09T00:14:19;16.90;99.90
15257;DHT22;7731;50.720;6.912;2022-09-09T00:16:58;16.90;99.90
15257;DHT22;7731;50.720;6.912;2022-09-09T00:19:39;16.90;99.90
15257;DHT22;7731;50.720;6.912;2022-09-09T00:22:19;16.80;99.90
15257;DHT22;7731;50.720;6.912;2022-09-09T00:24:54;16.80;99.90
15257;DHT22;7731;50.720;6.912;2022-09-09T00:27:30;16.80;99.90
15257;DHT22;7731;50.720;6.912;2022-09-09T00:30:15;16.70;99.90
15257;DHT22;7731;50.720;6.912;2022-09-09T00:32:50;16.70;99.90
15257;DHT22;7731;50.720;6.912;2022-09-09T00:35:28;16.60;99.90
15257;DHT22;7731;50.720;6.912;2022-09-09T00:38:03;16.60;99.90
15257;DHT22;7731;50.720;6.912;2022-09-09T00:40:49;16.60;99.90
15257;DHT22;7731;50.720;6.912;2022-09-09T00:43:28;16.50;99.90
15257;DHT22;7731;50.720;6.912;2022-09-09T00:46:10;16.40;99.90
15257;DHT22;7731;50.720;6.912;2022-09-09T00:49:04;16.40;99.90
15257;DHT22;7731;50.720;6.912;2022-09-09T00:51:56;16.40;99.90
15257;DHT22;7731;50.720;6.912;2022-09-09T00:54:44;16.40;99.90
15257;DHT22;7731;50.720;6.912;2022-09-09T00:57:26;16.40;99.90
15257;DHT22;7731;50.720;6.912;2022-09-09T01:00:16;16.40;99.90
15257;DHT22;7731;50.720;6.912;2022-09-09T01:02:56;16.40;99.90
15257;DHT22;7731;50.720;6.912;2022-09-09T01:05:41;16.40;99.90
15257;DHT22;7731;50.720;6.912;2022-09-09T01:08:30;16.40;99.90
15257;DHT22;7731;50.720;6.912;2022-09-09T01:11:15;16.30;99.90
15257;DHT22;7731;50.720;6.912;2022-09-09T01:14:00;16.40;99.90
15257;DHT22;7731;50.720;6.912;2022-09-09T01:16:33;16.40;99.90
15257;DHT22;7731;50.720;6.912;2022-09-09T01:19:07;16.40;99.90
15257;DHT22;7731;50.720;6.912;2022-09-09T01:21:53;16.40;99.90
15257;DHT22;7731;50.720;6.912;2022-09-09T01:24:38;16.40;99.90
15257;DHT22;7731;50.720;6.912;2022-09-09T01:27:15;16.40;99.90
15257;DHT22;7731;50.720;6.912;2022-09-09T01:29:47;16.40;99.90
15257;DHT22;7731;50.720;6.912;2022-09-09T01:32:38;16.40;99.90
15257;DHT22;7731;50.720;6.912;2022-09-09T01:35:14;16.30;99.90
15257;DHT22;7731;50.720;6.912;2022-09-09T01:37:52;16.30;99.90
15257;DHT22;7731;50.720;6.912;2022-09-09T01:40:22;16.30;99.90
15257;DHT22;7731;50.720;6.912;2022-09-09T01:42:58;16.30;99.90
15257;DHT22;7731;50.720;6.912;2022-09-09T01:45:30;16.30;99.90
15257;DHT22;7731;50.720;6.912;2022-09-09T01:48:01;16.40;99.90
15257;DHT22;7731;50.720;6.912;2022-09-09T01:50:39;16.40;99.90
15257;DHT22;7731;50.720;6.912;2022-09-09T01:53:17;16.50;99.90
15257;DHT22;7731;50.720;6.912;2022-09-09T01:56:00;16.50;99.90
15257;DHT22;7731;50.720;6.912;2022-09-09T01:58:52;16.60;99.90
15257;DHT22;7731;50.720;6.912;2022-09-09T02:01:47;16.50;99.90
15257;DHT22;7731;50.720;6.912;2022-09-09T02:04:36;16.50;99.90
15257;DHT22;7731;50.720;6.912;2022-09-09T02:07:19;16.50;99.90
15257;DHT22;7731;50.720;6.912;2022-09-09T02:10:08;16.50;99.90
15257;DHT22;7731;50.720;6.912;2022-09-09T02:12:49;16.50;99.90
15257;DHT22;7731;50.720;6.912;2022-09-09T02:15:30;16.60;99.90
15257;DHT22;7731;50.720;6.912;2022-09-09T02:18:08;16.70;99.90
15257;DHT22;7731;50.720;6.912;2022-09-09T02:20:43;16.70;99.90
15257;DHT22;7731;50.720;6.912;2022-09-09T02:23:16;16.80;99.90
15257;DHT22;7731;50.720;6.912;2022-09-09T02:25:48;17.00;99.90
15257;DHT22;7731;50.720;6.912;2022-09-09T02:28:21;17.10;99.90
15257;DHT22;7731;50.720;6.912;2022-09-09T02:30:57;17.20;99.90
15257;DHT22;7731;50.720;6.912;2022-09-09T02:33:35;17.20;99.90
15257;DHT22;7731;50.720;6.912;2022-09-09T02:36:10;17.10;99.90
15257;DHT22;7731;50.720;6.912;2022-09-09T02:38:46;17.00;99.90
15257;DHT22;7731;50.720;6.912;2022-09-09T02:41:22;17.00;99.90
15257;DHT22;7731;50.720;6.912;2022-09-09T02:43:55;17.00;99.90
15257;DHT22;7731;50.720;6.912;2022-09-09T02:46:40;17.00;99.90
15257;DHT22;7731;50.720;6.912;2022-09-09T02:49:31;17.10;99.90
15257;DHT22;7731;50.720;6.912;2022-09-09T02:52:14;17.20;99.90
15257;DHT22;7731;50.720;6.912;2022-09-09T02:54:45;17.20;99.90
15257;DHT22;7731;50.720;6.912;2022-09-09T02:57:32;17.20;99.90
15257;DHT22;7731;50.720;6.912;2022-09-09T03:00:04;17.20;99.90
15257;DHT22;7731;50.720;6.912;2022-09-09T03:02:39;17.10;99.90
15257;DHT22;7731;50.720;6.912;2022-09-09T03:05:09;17.10;99.90
15257;DHT22;7731;50.720;6.912;2022-09-09T03:07:39;17.00;99.90
15257;DHT22;7731;50.720;6.912;2022-09-09T03:10:10;17.00;99.90
15257;DHT22;7731;50.720;6.912;2022-09-09T03:12:40;16.90;99.90
15257;DHT22;7731;50.720;6.912;2022-09-09T03:15:13;16.80;99.90
15257;DHT22;7731;50.720;6.912;2022-09-09T03:17:45;16.80;99.90
15257;DHT22;7731;50.720;6.912;2022-09-09T03:20:16;16.80;99.90
15257;DHT22;7731;50.720;6.912;2022-09-09T03:22:50;16.80;99.90
15257;DHT22;7731;50.720;6.912;2022-09-09T03:25:21;16.70;99.90
15257;DHT22;7731;50.720;6.912;2022-09-09T03:27:55;16.70;99.90
15257;DHT22;7731;50.720;6.912;2022-09-09T03:33:19;16.80;99.90
15257;DHT22;7731;50.720;6.912;2022-09-09T03:35:49;16.90;99.90
15257;DHT22;7731;50.720;6.912;2022-09-09T03:38:20;17.00;99.90
15257;DHT22;7731;50.720;6.912;2022-09-09T03:40:54;17.00;99.90
15257;DHT22;7731;50.720;6.912;2022-09-09T03:43:27;17.10;99.90
15257;DHT22;7731;50.720;6.912;2022-09-09T03:46:00;17.00;99.90
15257;DHT22;7731;50.720;6.912;2022-09-09T03:48:33;17.00;99.90
15257;DHT22;7731;50.720;6.912;2022-09-09T03:51:04;17.00;99.90
15257;DHT22;7731;50.720;6.912;2022-09-09T03:53:34;17.00;99.90
15257;DHT22;7731;50.720;6.912;2022-09-09T03:56:06;17.00;99.90
15257;DHT22;7731;50.720;6.912;2022-09-09T03:58:37;17.00;99.90
15257;DHT22;7731;50.720;6.912;2022-09-09T04:01:09;16.90;99.90
15257;DHT22;7731;50.720;6.912;2022-09-09T04:03:53;17.00;99.90
15257;DHT22;7731;50.720;6.912;2022-09-09T04:06:25;17.00;99.90
15257;DHT22;7731;50.720;6.912;2022-09-09T04:08:55;17.00;99.90
15257;DHT22;7731;50.720;6.912;2022-09-09T04:11:25;17.00;99.90
15257;DHT22;7731;50.720;6.912;2022-09-09T04:13:55;17.00;99.90
15257;DHT22;7731;50.720;6.912;2022-09-09T04:16:26;17.10;99.90
15257;DHT22;7731;50.720;6.912;2022-09-09T04:18:59;17.00;99.90
15257;DHT22;7731;50.720;6.912;2022-09-09T04:21:31;17.00;99.90
15257;DHT22;7731;50.720;6.912;2022-09-09T04:24:04;16.90;99.90
15257;DHT22;7731;50.720;6.912;2022-09-09T04:26:35;16.90;99.90
15257;DHT22;7731;50.720;6.912;2022-09-09T04:29:06;16.90;99.90
15257;DHT22;7731;50.720;6.912;2022-09-09T04:31:37;17.00;99.90
15257;DHT22;7731;50.720;6.912;2022-09-09T04:34:12;17.00;99.90
15257;DHT22;7731;50.720;6.912;2022-09-09T04:36:48;16.90;99.90
15257;DHT22;7731;50.720;6.912;2022-09-09T04:39:18;16.90;99.90
15257;DHT22;7731;50.720;6.912;2022-09-09T04:41:48;17.00;99.90
15257;DHT22;7731;50.720;6.912;2022-09-09T04:44:19;17.00;99.90
15257;DHT22;7731;50.720;6.912;2022-09-09T04:46:50;17.00;99.90
15257;DHT22;7731;50.720;6.912;2022-09-09T04:49:27;17.10;99.90
15257;DHT22;7731;50.720;6.912;2022-09-09T04:51:58;17.10;99.90
15257;DHT22;7731;50.720;6.912;2022-09-09T04:54:28;17.00;99.90
15257;DHT22;7731;50.720;6.912;2022-09-09T04:56:59;17.00;99.90
15257;DHT22;7731;50.720;6.912;2022-09-09T04:59:32;17.00;99.90
15257;DHT22;7731;50.720;6.912;2022-09-09T05:02:02;16.90;99.90
15257;DHT22;7731;50.720;6.912;2022-09-09T05:04:37;17.00;99.90
15257;DHT22;7731;50.720;6.912;2022-09-09T05:07:13;17.00;99.90
15257;DHT22;7731;50.720;6.912;2022-09-09T05:09:43;17.00;99.90
15257;DHT22;7731;50.720;6.912;2022-09-09T05:12:15;17.00;99.90
15257;DHT22;7731;50.720;6.912;2022-09-09T05:14:45;17.00;99.90
15257;DHT22;7731;50.720;6.912;2022-09-09T05:17:21;17.10;99.90
15257;DHT22;7731;50.720;6.912;2022-09-09T05:19:56;17.20;99.90
15257;DHT22;7731;50.720;6.912;2022-09-09T05:22:26;17.20;99.90
15257;DHT22;7731;50.720;6.912;2022-09-09T05:24:57;17.20;99.90
15257;DHT22;7731;50.720;6.912;2022-09-09T05:27:28;17.30;99.90
15257;DHT22;7731;50.720;6.912;2022-09-09T05:30:05;17.30;99.90
15257;DHT22;7731;50.720;6.912;2022-09-09T05:32:42;17.20;99.90
15257;DHT22;7731;50.720;6.912;2022-09-09T05:35:17;17.20;99.90
15257;DHT22;7731;50.720;6.912;2022-09-09T05:37:50;17.20;99.90
15257;DHT22;7731;50.720;6.912;2022-09-09T05:40:23;17.20;99.90
15257;DHT22;7731;50.720;6.912;2022-09-09T05:43:00;17.10;99.90
15257;DHT22;7731;50.720;6.912;2022-09-09T05:45:31;17.10;99.90
15257;DHT22;7731;50.720;6.912;2022-09-09T05:48:01;17.10;99.90
15257;DHT22;7731;50.720;6.912;2022-09-09T05:50:37;17.10;99.90
15257;DHT22;7731;50.720;6.912;2022-09-09T05:53:17;17.10;99.90
15257;DHT22;7731;50.720;6.912;2022-09-09T05:55:47;17.10;99.90
15257;DHT22;7731;50.720;6.912;2022-09-09T05:58:20;17.10;99.90
15257;DHT22;7731;50.720;6.912;2022-09-09T06:00:51;17.20;99.90
15257;DHT22;7731;50.720;6.912;2022-09-09T06:03:31;17.30;99.90
15257;DHT22;7731;50.720;6.912;2022-09-09T06:06:15;17.40;99.90
15257;DHT22;7731;50.720;6.912;2022-09-09T06:08:49;17.50;99.90
15257;DHT22;7731;50.720;6.912;2022-09-09T06:11:23;17.60;99.90
15257;DHT22;7731;50.720;6.912;2022-09-09T06:13:58;17.70;99.90
15257;DHT22;7731;50.720;6.912;2022-09-09T06:16:29;17.90;99.90
15257;DHT22;7731;50.720;6.912;2022-09-09T06:19:01;18.10;99.90
15257;DHT22;7731;50.720;6.912;2022-09-09T06:21:35;18.10;99.90
15257;DHT22;7731;50.720;6.912;2022-09-09T06:24:07;18.40;99.90
15257;DHT22;7731;50.720;6.912;2022-09-09T06:26:39;18.60;99.90
15257;DHT22;7731;50.720;6.912;2022-09-09T06:29:12;18.80;99.90
15257;DHT22;7731;50.720;6.912;2022-09-09T06:31:43;18.80;99.90
15257;DHT22;7731;50.720;6.912;2022-09-09T06:34:14;18.80;99.90
15257;DHT22;7731;50.720;6.912;2022-09-09T06:36:47;18.90;92.50
15257;DHT22;7731;50.720;6.912;2022-09-09T06:39:18;18.90;99.80
15257;DHT22;7731;50.720;6.912;2022-09-09T06:41:49;18.90;99.90
15257;DHT22;7731;50.720;6.912;2022-09-09T06:44:30;18.70;99.90
15257;DHT22;7731;50.720;6.912;2022-09-09T06:47:04;18.80;93.80
15257;DHT22;7731;50.720;6.912;2022-09-09T06:49:37;18.80;90.50
15257;DHT22;7731;50.720;6.912;2022-09-09T06:52:16;18.80;98.70
15257;DHT22;7731;50.720;6.912;2022-09-09T06:54:46;18.80;90.50
15257;DHT22;7731;50.720;6.912;2022-09-09T06:57:16;18.90;73.00
15257;DHT22;7731;50.720;6.912;2022-09-09T07:00:03;19.00;64.90
15257;DHT22;7731;50.720;6.912;2022-09-09T07:02:34;19.00;58.00
15257;DHT22;7731;50.720;6.912;2022-09-09T07:05:07;19.20;37.90
15257;DHT22;7731;50.720;6.912;2022-09-09T07:07:41;19.10;32.50
15257;DHT22;7731;50.720;6.912;2022-09-09T07:10:11;19.20;25.40
15257;DHT22;7731;50.720;6.912;2022-09-09T07:12:41;19.30;13.70
15257;DHT22;7731;50.720;6.912;2022-09-09T07:15:11;19.40;5.70
15257;DHT22;7731;50.720;6.912;2022-09-09T07:17:41;19.30;6.70
15257;DHT22;7731;50.720;6.912;2022-09-09T07:20:12;19.60;28.60
15257;DHT22;7731;50.720;6.912;2022-09-09T07:22:45;21.20;1.00
15257;DHT22;7731;50.720;6.912;2022-09-09T07:25:15;23.20;1.00
15257;DHT22;7731;50.720;6.912;2022-09-09T07:27:48;25.10;99.90
15257;DHT22;7731;50.720;6.912;2022-09-09T07:30:18;25.60;1.00
15257;DHT22;7731;50.720;6.912;2022-09-09T07:32:53;26.60;1.00
15257;DHT22;7731;50.720;6.912;2022-09-09T07:35:37;26.70;99.90
15257;DHT22;7731;50.720;6.912;2022-09-09T07:38:11;26.00;1.00
15257;DHT22;7731;50.720;6.912;2022-09-09T07:40:41;25.50;1.00
15257;DHT22;7731;50.720;6.912;2022-09-09T07:43:12;26.00;1.00
15257;DHT22;7731;50.720;6.912;2022-09-09T07:45:57;25.30;1.00
15257;DHT22;7731;50.720;6.912;2022-09-09T07:48:28;24.00;1.00
15257;DHT22;7731;50.720;6.912;2022-09-09T07:51:09;23.90;99.90
15257;DHT22;7731;50.720;6.912;2022-09-09T07:53:44;23.40;1.00
15257;DHT22;7731;50.720;6.912;2022-09-09T07:56:25;22.80;99.90
15257;DHT22;7731;50.720;6.912;2022-09-09T07:58:58;22.40;99.90
15257;DHT22;7731;50.720;6.912;2022-09-09T08:01:48;22.80;99.90
15257;DHT22;7731;50.720;6.912;2022-09-09T08:04:24;24.10;99.90
15257;DHT22;7731;50.720;6.912;2022-09-09T08:06:56;24.50;10.60
15257;DHT22;7731;50.720;6.912;2022-09-09T08:09:32;25.80;1.00
15257;DHT22;7731;50.720;6.912;2022-09-09T08:12:02;25.80;1.00
15257;DHT22;7731;50.720;6.912;2022-09-09T08:14:38;25.90;1.00
15257;DHT22;7731;50.720;6.912;2022-09-09T08:17:08;25.50;1.00
15257;DHT22;7731;50.720;6.912;2022-09-09T08:19:38;24.70;99.90
15257;DHT22;7731;50.720;6.912;2022-09-09T08:22:08;24.90;91.50
15257;DHT22;7731;50.720;6.912;2022-09-09T08:24:46;25.00;1.00
15257;DHT22;7731;50.720;6.912;2022-09-09T08:27:16;24.10;1.00
15257;DHT22;7731;50.720;6.912;2022-09-09T08:29:46;23.50;1.00
15257;DHT22;7731;50.720;6.912;2022-09-09T08:32:16;22.70;99.90
15257;DHT22;7731;50.720;6.912;2022-09-09T08:34:50;22.10;1.00
15257;DHT22;7731;50.720;6.912;2022-09-09T08:37:27;21.70;99.90
15257;DHT22;7731;50.720;6.912;2022-09-09T08:39:59;21.60;1.00
15257;DHT22;7731;50.720;6.912;2022-09-09T08:42:38;21.40;1.00
15257;DHT22;7731;50.720;6.912;2022-09-09T08:45:23;21.40;1.00
15257;DHT22;7731;50.720;6.912;2022-09-09T08:48:20;21.10;99.90
15257;DHT22;7731;50.720;6.912;2022-09-09T08:51:06;20.80;1.00
15257;DHT22;7731;50.720;6.912;2022-09-09T08:53:41;21.00;1.00
15257;DHT22;7731;50.720;6.912;2022-09-09T08:56:20;21.70;44.50
15257;DHT22;7731;50.720;6.912;2022-09-09T08:58:54;22.40;1.00
15257;DHT22;7731;50.720;6.912;2022-09-09T09:01:46;22.70;99.90
15257;DHT22;7731;50.720;6.912;2022-09-09T09:04:38;22.80;1.00
15257;DHT22;7731;50.720;6.912;2022-09-09T09:07:28;22.40;99.90
15257;DHT22;7731;50.720;6.912;2022-09-09T09:10:18;22.20;1.00
15257;DHT22;7731;50.720;6.912;2022-09-09T09:13:15;21.90;99.90
15257;DHT22;7731;50.720;6.912;2022-09-09T09:15:52;21.90;99.90
15257;DHT22;7731;50.720;6.912;2022-09-09T09:18:27;21.80;1.00
15257;DHT22;7731;50.720;6.912;2022-09-09T09:21:05;22.00;92.40
15257;DHT22;7731;50.720;6.912;2022-09-09T09:23:47;22.40;1.00
15257;DHT22;7731;50.720;6.912;2022-09-09T09:26:25;23.10;99.90
15257;DHT22;7731;50.720;6.912;2022-09-09T09:29:09;24.10;99.90
15257;DHT22;7731;50.720;6.912;2022-09-09T09:31:43;24.70;99.90
15257;DHT22;7731;50.720;6.912;2022-09-09T09:34:25;25.50;99.90
15257;DHT22;7731;50.720;6.912;2022-09-09T09:36:57;25.10;1.00
15257;DHT22;7731;50.720;6.912;2022-09-09T09:39:30;24.10;1.00
15257;DHT22;7731;50.720;6.912;2022-09-09T09:42:26;23.40;1.00
15257;DHT22;7731;50.720;6.912;2022-09-09T09:45:07;23.60;1.00
15257;DHT22;7731;50.720;6.912;2022-09-09T09:47:58;24.80;1.00
15257;DHT22;7731;50.720;6.912;2022-09-09T09:50:33;24.90;1.00
15257;DHT22;7731;50.720;6.912;2022-09-09T09:53:05;24.90;1.00
15257;DHT22;7731;50.720;6.912;2022-09-09T09:56:02;25.40;1.00
15257;DHT22;7731;50.720;6.912;2022-09-09T09:58:38;26.50;28.90
15257;DHT22;7731;50.720;6.912;2022-09-09T10:01:26;27.60;1.00
15257;DHT22;7731;50.720;6.912;2022-09-09T10:04:02;27.60;1.00
15257;DHT22;7731;50.720;6.912;2022-09-09T10:06:46;27.50;1.00
15257;DHT22;7731;50.720;6.912;2022-09-09T10:09:24;26.80;1.00
15257;DHT22;7731;50.720;6.912;2022-09-09T10:12:08;26.10;1.00
15257;DHT22;7731;50.720;6.912;2022-09-09T10:14:55;26.30;1.00
15257;DHT22;7731;50.720;6.912;2022-09-09T10:17:40;26.40;1.00
15257;DHT22;7731;50.720;6.912;2022-09-09T10:20:32;25.30;99.90
15257;DHT22;7731;50.720;6.912;2022-09-09T10:23:24;24.10;99.90
15257;DHT22;7731;50.720;6.912;2022-09-09T10:26:16;23.20;1.00
15257;DHT22;7731;50.720;6.912;2022-09-09T10:29:08;23.00;1.00
15257;DHT22;7731;50.720;6.912;2022-09-09T10:32:01;23.40;1.00
15257;DHT22;7731;50.720;6.912;2022-09-09T10:34:56;23.70;1.00
15257;DHT22;7731;50.720;6.912;2022-09-09T10:37:46;23.60;1.00
15257;DHT22;7731;50.720;6.912;2022-09-09T10:40:32;23.10;99.90
15257;DHT22;7731;50.720;6.912;2022-09-09T10:43:18;22.80;67.20
15257;DHT22;7731;50.720;6.912;2022-09-09T10:46:04;22.70;99.90
15257;DHT22;7731;50.720;6.912;2022-09-09T10:49:02;22.70;1.00
15257;DHT22;7731;50.720;6.912;2022-09-09T10:51:56;22.70;1.00
15257;DHT22;7731;50.720;6.912;2022-09-09T10:54:41;22.70;1.00
15257;DHT22;7731;50.720;6.912;2022-09-09T10:57:35;22.80;1.00
15257;DHT22;7731;50.720;6.912;2022-09-09T11:00:23;23.30;1.00
15257;DHT22;7731;50.720;6.912;2022-09-09T11:02:57;23.80;99.90
15257;DHT22;7731;50.720;6.912;2022-09-09T11:05:38;23.90;99.90
15257;DHT22;7731;50.720;6.912;2022-09-09T11:08:21;24.10;1.00
15257;DHT22;7731;50.720;6.912;2022-09-09T11:10:59;24.20;1.00
15257;DHT22;7731;50.720;6.912;2022-09-09T11:13:39;24.20;1.00
15257;DHT22;7731;50.720;6.912;2022-09-09T11:16:25;24.00;1.00
15257;DHT22;7731;50.720;6.912;2022-09-09T11:19:02;25.10;99.90
15257;DHT22;7731;50.720;6.912;2022-09-09T11:21:44;25.80;94.10
15257;DHT22;7731;50.720;6.912;2022-09-09T11:24:26;25.90;14.50
15257;DHT22;7731;50.720;6.912;2022-09-09T11:27:06;25.50;99.90
15257;DHT22;7731;50.720;6.912;2022-09-09T11:30:05;25.30;68.40
15257;DHT22;7731;50.720;6.912;2022-09-09T11:33:31;25.00;99.90
15257;DHT22;7731;50.720;6.912;2022-09-09T11:40:04;24.40;99.90
15257;DHT22;7731;50.720;6.912;2022-09-09T11:42:49;24.20;1.00
15257;DHT22;7731;50.720;6.912;2022-09-09T11:45:33;24.00;1.00
15257;DHT22;7731;50.720;6.912;2022-09-09T11:48:20;23.90;1.00
15257;DHT22;7731;50.720;6.912;2022-09-09T11:51:00;23.90;1.00
15257;DHT22;7731;50.720;6.912;2022-09-09T11:53:48;23.60;99.90
15257;DHT22;7731;50.720;6.912;2022-09-09T11:56:32;23.40;1.00
15257;DHT22;7731;50.720;6.912;2022-09-09T11:59:20;23.60;99.90
15257;DHT22;7731;50.720;6.912;2022-09-09T12:01:56;23.50;99.90
15257;DHT22;7731;50.720;6.912;2022-09-09T12:04:34;23.50;99.90
15257;DHT22;7731;50.720;6.912;2022-09-09T12:07:32;23.60;99.90
15257;DHT22;7731;50.720;6.912;2022-09-09T12:10:21;23.50;99.90
15257;DHT22;7731;50.720;6.912;2022-09-09T12:13:15;23.30;99.90
15257;DHT22;7731;50.720;6.912;2022-09-09T12:15:55;23.20;99.90
15257;DHT22;7731;50.720;6.912;2022-09-09T12:18:33;23.10;99.90
15257;DHT22;7731;50.720;6.912;2022-09-09T12:21:11;23.00;99.90
15257;DHT22;7731;50.720;6.912;2022-09-09T12:23:51;23.00;1.00
15257;DHT22;7731;50.720;6.912;2022-09-09T12:26:30;23.00;1.00
15257;DHT22;7731;50.720;6.912;2022-09-09T12:29:24;22.90;1.00
15257;DHT22;7731;50.720;6.912;2022-09-09T12:32:07;22.80;1.00
15257;DHT22;7731;50.720;6.912;2022-09-09T12:34:42;22.90;1.00
15257;DHT22;7731;50.720;6.912;2022-09-09T12:37:27;23.10;1.00
15257;DHT22;7731;50.720;6.912;2022-09-09T12:40:02;23.10;1.00
15257;DHT22;7731;50.720;6.912;2022-09-09T12:42:40;22.90;1.00
15257;DHT22;7731;50.720;6.912;2022-09-09T12:45:22;22.70;99.90
15257;DHT22;7731;50.720;6.912;2022-09-09T12:47:55;22.50;1.00
15257;DHT22;7731;50.720;6.912;2022-09-09T12:50:30;22.30;99.90
15257;DHT22;7731;50.720;6.912;2022-09-09T12:53:06;22.00;1.00
15257;DHT22;7731;50.720;6.912;2022-09-09T12:55:52;21.90;1.00
15257;DHT22;7731;50.720;6.912;2022-09-09T12:58:25;21.80;99.90
15257;DHT22;7731;50.720;6.912;2022-09-09T13:01:03;21.60;1.00
15257;DHT22;7731;50.720;6.912;2022-09-09T13:03:42;21.60;99.90
15257;DHT22;7731;50.720;6.912;2022-09-09T13:06:20;21.70;1.00
15257;DHT22;7731;50.720;6.912;2022-09-09T13:08:56;22.00;1.00
15257;DHT22;7731;50.720;6.912;2022-09-09T13:11:31;22.10;99.90
15257;DHT22;7731;50.720;6.912;2022-09-09T13:14:15;22.20;99.90
15257;DHT22;7731;50.720;6.912;2022-09-09T13:16:58;22.30;99.90
15257;DHT22;7731;50.720;6.912;2022-09-09T13:19:35;22.60;99.90
15257;DHT22;7731;50.720;6.912;2022-09-09T13:22:14;23.00;47.60
15257;DHT22;7731;50.720;6.912;2022-09-09T13:25:00;23.50;99.90
15257;DHT22;7731;50.720;6.912;2022-09-09T13:27:33;23.70;1.00
15257;DHT22;7731;50.720;6.912;2022-09-09T13:30:21;24.00;1.00
15257;DHT22;7731;50.720;6.912;2022-09-09T13:33:18;24.20;1.00
15257;DHT22;7731;50.720;6.912;2022-09-09T13:35:55;24.00;1.00
15257;DHT22;7731;50.720;6.912;2022-09-09T13:38:29;23.30;1.00
15257;DHT22;7731;50.720;6.912;2022-09-09T13:41:04;22.70;1.00
15257;DHT22;7731;50.720;6.912;2022-09-09T13:43:37;22.70;99.90
15257;DHT22;7731;50.720;6.912;2022-09-09T13:46:25;22.60;97.20
15257;DHT22;7731;50.720;6.912;2022-09-09T13:49:19;22.40;8.60
15257;DHT22;7731;50.720;6.912;2022-09-09T13:52:13;22.30;99.90
15257;DHT22;7731;50.720;6.912;2022-09-09T13:54:53;22.50;99.90
15257;DHT22;7731;50.720;6.912;2022-09-09T13:57:29;22.70;99.90
15257;DHT22;7731;50.720;6.912;2022-09-09T13:59:59;22.80;1.00
15257;DHT22;7731;50.720;6.912;2022-09-09T14:02:32;22.60;1.00
15257;DHT22;7731;50.720;6.912;2022-09-09T14:05:05;22.70;1.00
15257;DHT22;7731;50.720;6.912;2022-09-09T14:07:41;23.00;99.90
15257;DHT22;7731;50.720;6.912;2022-09-09T14:10:19;22.90;99.90
15257;DHT22;7731;50.720;6.912;2022-09-09T14:12:49;22.90;99.90
15257;DHT22;7731;50.720;6.912;2022-09-09T14:15:22;22.80;1.00
15257;DHT22;7731;50.720;6.912;2022-09-09T14:17:53;22.80;1.00
15257;DHT22;7731;50.720;6.912;2022-09-09T14:20:28;22.80;2.10
15257;DHT22;7731;50.720;6.912;2022-09-09T14:23:01;22.70;99.90
15257;DHT22;7731;50.720;6.912;2022-09-09T14:25:31;22.50;99.90
15257;DHT22;7731;50.720;6.912;2022-09-09T14:28:01;22.50;1.00
15257;DHT22;7731;50.720;6.912;2022-09-09T14:30:32;22.80;1.00
15257;DHT22;7731;50.720;6.912;2022-09-09T14:33:10;23.20;99.90
15257;DHT22;7731;50.720;6.912;2022-09-09T14:35:44;23.60;1.00
15257;DHT22;7731;50.720;6.912;2022-09-09T14:38:15;23.40;1.00
15257;DHT22;7731;50.720;6.912;2022-09-09T14:40:45;23.10;1.00
15257;DHT22;7731;50.720;6.912;2022-09-09T14:43:16;22.80;99.90
15257;DHT22;7731;50.720;6.912;2022-09-09T14:45:47;22.60;99.90
15257;DHT22;7731;50.720;6.912;2022-09-09T14:48:20;22.50;1.00
15257;DHT22;7731;50.720;6.912;2022-09-09T14:50:54;22.40;1.00
15257;DHT22;7731;50.720;6.912;2022-09-09T14:53:28;22.40;1.00
15257;DHT22;7731;50.720;6.912;2022-09-09T14:56:04;22.30;69.90
15257;DHT22;7731;50.720;6.912;2022-09-09T14:58:35;22.20;99.90
15257;DHT22;7731;50.720;6.912;2022-09-09T15:01:06;22.20;99.90
15257;DHT22;7731;50.720;6.912;2022-09-09T15:03:39;22.20;99.90
15257;DHT22;7731;50.720;6.912;2022-09-09T15:06:16;22.10;99.90
15257;DHT22;7731;50.720;6.912;2022-09-09T15:08:51;22.10;99.90
15257;DHT22;7731;50.720;6.912;2022-09-09T15:11:26;22.00;1.00
15257;DHT22;7731;50.720;6.912;2022-09-09T15:13:58;21.90;1.00
15257;DHT22;7731;50.720;6.912;2022-09-09T15:16:29;21.80;1.00
15257;DHT22;7731;50.720;6.912;2022-09-09T15:19:00;21.60;1.00
15257;DHT22;7731;50.720;6.912;2022-09-09T15:21:35;21.50;1.00
15257;DHT22;7731;50.720;6.912;2022-09-09T15:24:06;21.30;1.00
15257;DHT22;7731;50.720;6.912;2022-09-09T15:26:43;20.90;1.00
15257;DHT22;7731;50.720;6.912;2022-09-09T15:29:13;20.50;17.20
15257;DHT22;7731;50.720;6.912;2022-09-09T15:31:43;20.10;99.90
15257;DHT22;7731;50.720;6.912;2022-09-09T15:34:14;20.20;99.90
15257;DHT22;7731;50.720;6.912;2022-09-09T15:36:49;20.20;99.90
15257;DHT22;7731;50.720;6.912;2022-09-09T15:39:19;20.20;99.90
15257;DHT22;7731;50.720;6.912;2022-09-09T15:41:49;20.20;99.90
15257;DHT22;7731;50.720;6.912;2022-09-09T15:44:19;20.10;99.90
15257;DHT22;7731;50.720;6.912;2022-09-09T15:46:53;20.10;99.90
15257;DHT22;7731;50.720;6.912;2022-09-09T15:49:25;20.10;99.90
15257;DHT22;7731;50.720;6.912;2022-09-09T15:52:00;19.90;99.90
15257;DHT22;7731;50.720;6.912;2022-09-09T15:54:33;19.70;99.90
15257;DHT22;7731;50.720;6.912;2022-09-09T15:57:11;19.70;99.90
15257;DHT22;7731;50.720;6.912;2022-09-09T15:59:48;19.60;99.90
15257;DHT22;7731;50.720;6.912;2022-09-09T16:02:20;19.70;99.90
15257;DHT22;7731;50.720;6.912;2022-09-09T16:04:59;19.60;99.90
15257;DHT22;7731;50.720;6.912;2022-09-09T16:07:32;19.50;99.90
15257;DHT22;7731;50.720;6.912;2022-09-09T16:10:03;19.60;99.90
15257;DHT22;7731;50.720;6.912;2022-09-09T16:12:47;19.50;99.90
15257;DHT22;7731;50.720;6.912;2022-09-09T16:15:20;19.40;99.90
15257;DHT22;7731;50.720;6.912;2022-09-09T16:17:54;19.30;99.90
15257;DHT22;7731;50.720;6.912;2022-09-09T16:20:25;19.40;99.90
15257;DHT22;7731;50.720;6.912;2022-09-09T16:23:00;19.30;99.90
15257;DHT22;7731;50.720;6.912;2022-09-09T16:25:30;19.30;99.90
15257;DHT22;7731;50.720;6.912;2022-09-09T16:28:03;19.30;99.90
15257;DHT22;7731;50.720;6.912;2022-09-09T16:30:33;19.20;99.90
15257;DHT22;7731;50.720;6.912;2022-09-09T16:33:06;19.10;99.90
15257;DHT22;7731;50.720;6.912;2022-09-09T16:35:37;19.10;99.90
15257;DHT22;7731;50.720;6.912;2022-09-09T16:38:14;19.00;99.90
15257;DHT22;7731;50.720;6.912;2022-09-09T16:40:45;18.90;99.90
15257;DHT22;7731;50.720;6.912;2022-09-09T16:43:17;18.80;99.90
15257;DHT22;7731;50.720;6.912;2022-09-09T16:45:52;18.70;99.90
15257;DHT22;7731;50.720;6.912;2022-09-09T16:48:22;18.70;99.90
15257;DHT22;7731;50.720;6.912;2022-09-09T16:50:52;18.70;99.90
15257;DHT22;7731;50.720;6.912;2022-09-09T16:53:40;18.60;99.90
15257;DHT22;7731;50.720;6.912;2022-09-09T16:56:16;18.50;99.90
15257;DHT22;7731;50.720;6.912;2022-09-09T16:58:50;18.40;99.90
15257;DHT22;7731;50.720;6.912;2022-09-09T17:01:22;18.50;99.90